createdAt,value
2023-02-08T00:00:59.494Z,63.18
2023-02-08T00:03:29.484Z,62.79
2023-02-08T00:05:59.656Z,62.92
2023-02-08T00:08:33.365Z,63.38
2023-02-08T00:11:03.008Z,63.50
2023-02-08T00:13:33.758Z,63.22
2023-02-08T00:16:04.435Z,64.33
2023-02-08T00:18:34.452Z,64.01
2023-02-08T00:21:12.031Z,63.58
2023-02-08T00:23:42.886Z,64.04
2023-02-08T00:26:16.217Z,64.12
2023-02-08T00:28:46.538Z,64.39
2023-02-08T00:31:16.045Z,64.34
2023-02-08T00:33:46.011Z,65.22
2023-02-08T00:36:16.422Z,65.45
2023-02-08T00:38:46.122Z,65.08
2023-02-08T00:41:16.551Z,65.51
2023-02-08T00:43:46.913Z,65.56
2023-02-08T00:46:19.039Z,65.30
2023-02-08T00:48:48.662Z,65.30
2023-02-08T00:51:18.692Z,65.88
2023-02-08T00:53:48.152Z,65.99
2023-02-08T00:56:18.192Z,65.39
2023-02-08T00:58:48.989Z,65.28
2023-02-08T01:01:20.474Z,65.29
2023-02-08T01:03:53.441Z,65.59
2023-02-08T01:06:24.003Z,66.15
2023-02-08T01:08:54.609Z,66.08
2023-02-08T01:11:27.256Z,66.13
2023-02-08T01:13:58.149Z,66.07
2023-02-08T01:16:30.779Z,65.52
2023-02-08T01:19:07.731Z,65.76
2023-02-08T01:21:43.163Z,66.05
2023-02-08T01:24:13.146Z,66.17
2023-02-08T01:26:45.010Z,66.48
2023-02-08T01:29:17.262Z,66.42
2023-02-08T01:31:47.270Z,66.51
2023-02-08T01:34:17.275Z,66.28
2023-02-08T01:36:47.090Z,66.74
2023-02-08T01:39:17.259Z,66.50
2023-02-08T01:41:47.466Z,66.91
2023-02-08T01:44:20.444Z,66.48
2023-02-08T01:46:51.788Z,66.62
2023-02-08T01:49:34.092Z,67.09
2023-02-08T01:52:15.951Z,67.08
2023-02-08T01:55:11.948Z,67.29
2023-02-08T01:57:43.797Z,67.37
2023-02-08T02:00:23.842Z,67.00
2023-02-08T02:02:59.312Z,67.68
2023-02-08T02:05:42.031Z,67.61
2023-02-08T02:08:13.288Z,67.49
2023-02-08T02:10:45.008Z,67.49
2023-02-08T02:13:24.770Z,67.60
2023-02-08T02:15:56.532Z,67.71
2023-02-08T02:18:30.220Z,67.91
2023-02-08T02:21:20.219Z,67.90
2023-02-08T02:23:56.018Z,67.88
2023-02-08T02:26:55.189Z,67.80
2023-02-08T02:29:58.940Z,67.81
2023-02-08T02:32:30.949Z,67.77
2023-02-08T02:35:46.665Z,68.11
2023-02-08T02:38:49.271Z,68.02
2023-02-08T02:42:03.552Z,67.79
2023-02-08T02:45:12.023Z,68.17
2023-02-08T02:48:12.018Z,68.70
2023-02-08T02:51:04.502Z,68.11
2023-02-08T02:53:49.485Z,68.19
2023-02-08T02:56:24.570Z,68.35
2023-02-08T02:58:59.445Z,68.30
2023-02-08T03:01:31.785Z,68.65
2023-02-08T03:04:16.813Z,68.52
2023-02-08T03:06:56.265Z,69.02
2023-02-08T03:09:37.607Z,68.79
2023-02-08T03:12:19.398Z,68.96
2023-02-08T03:14:59.668Z,68.80
2023-02-08T03:17:57.828Z,69.05
2023-02-08T03:20:42.161Z,69.12
2023-02-08T03:23:29.667Z,69.32
2023-02-08T03:26:27.933Z,69.31
2023-02-08T03:29:13.903Z,69.18
2023-02-08T03:31:56.740Z,69.68
2023-02-08T03:34:51.392Z,69.36
2023-02-08T03:37:38.331Z,69.10
2023-02-08T03:40:37.362Z,68.97
2023-02-08T03:43:17.817Z,69.43
2023-02-08T03:45:59.600Z,69.31
2023-02-08T03:48:32.361Z,69.52
2023-02-08T03:51:05.400Z,69.63
2023-02-08T03:53:38.877Z,69.38
2023-02-08T03:56:25.906Z,69.25
2023-02-08T03:59:00.685Z,68.91
2023-02-08T04:01:37.329Z,69.53
2023-02-08T04:04:07.284Z,69.66
2023-02-08T04:06:36.625Z,69.96
2023-02-08T04:09:06.944Z,69.57
2023-02-08T04:11:37.577Z,69.89
2023-02-08T04:14:08.164Z,70.45
2023-02-08T04:16:37.686Z,69.61
2023-02-08T04:19:10.704Z,69.90
2023-02-08T04:21:45.125Z,69.30
2023-02-08T04:24:17.862Z,69.74
2023-02-08T04:26:51.354Z,69.58
2023-02-08T04:29:20.547Z,69.47
2023-02-08T04:34:34.600Z,69.86
2023-02-08T04:37:06.152Z,69.81
2023-02-08T04:39:38.984Z,70.01
2023-02-08T04:42:09.609Z,69.85
2023-02-08T04:44:41.821Z,70.02
2023-02-08T04:47:11.182Z,70.43
2023-02-08T04:49:41.768Z,69.77
2023-02-08T04:52:14.359Z,70.39
2023-02-08T04:54:43.809Z,70.68
2023-02-08T04:57:15.619Z,70.51
2023-02-08T04:59:44.843Z,70.48
2023-02-08T05:02:19.470Z,70.63
2023-02-08T05:04:49.474Z,70.77
2023-02-08T05:07:19.850Z,70.30
2023-02-08T05:09:49.769Z,70.68
2023-02-08T05:12:24.172Z,70.93
2023-02-08T05:14:54.746Z,70.50
2023-02-08T05:17:27.238Z,70.91
2023-02-08T05:19:59.252Z,70.50
2023-02-08T05:22:29.431Z,70.68
2023-02-08T05:25:07.297Z,70.75
2023-02-08T05:27:37.927Z,70.44
2023-02-08T05:30:08.906Z,70.28
2023-02-08T05:32:39.103Z,70.51
2023-02-08T05:35:29.355Z,70.00
2023-02-08T05:37:59.035Z,70.94
2023-02-08T05:40:29.140Z,70.29
2023-02-08T05:43:05.482Z,70.62
2023-02-08T05:45:34.782Z,70.46
2023-02-08T05:48:05.188Z,70.53
2023-02-08T05:50:35.543Z,70.21
2023-02-08T05:53:05.337Z,70.53
2023-02-08T05:55:36.139Z,70.97
2023-02-08T05:58:06.739Z,70.48
2023-02-08T06:00:36.469Z,70.55
2023-02-08T06:03:10.336Z,70.52
2023-02-08T06:05:41.568Z,70.24
2023-02-08T06:08:16.487Z,70.71
2023-02-08T06:10:51.720Z,70.89
2023-02-08T06:13:39.647Z,71.01
2023-02-08T06:16:09.789Z,70.66
2023-02-08T06:18:39.268Z,70.98
2023-02-08T06:21:08.726Z,70.99
2023-02-08T06:23:39.352Z,70.90
2023-02-08T06:26:09.483Z,71.69
2023-02-08T06:28:41.856Z,71.65
2023-02-08T06:31:11.920Z,71.45
2023-02-08T06:33:41.678Z,71.77
2023-02-08T06:36:10.983Z,71.28
2023-02-08T06:38:43.348Z,71.45
2023-02-08T06:41:19.894Z,71.58
2023-02-08T06:43:49.162Z,71.26
2023-02-08T06:46:21.096Z,70.85
2023-02-08T06:48:52.062Z,71.15
2023-02-08T06:51:21.900Z,71.21
2023-02-08T06:53:51.382Z,70.92
2023-02-08T06:56:40.739Z,70.99
2023-02-08T06:59:10.759Z,70.97
2023-02-08T07:01:39.880Z,71.30
2023-02-08T07:04:12.930Z,70.86
2023-02-08T07:06:42.920Z,70.69
2023-02-08T07:09:22.329Z,70.82
2023-02-08T07:11:52.623Z,70.79
2023-02-08T07:14:23.789Z,70.79
2023-02-08T07:16:56.265Z,70.30
2023-02-08T07:19:27.090Z,69.98
2023-02-08T07:21:59.972Z,69.85
2023-02-08T07:24:29.865Z,69.39
2023-02-08T07:27:00.056Z,69.28
2023-02-08T07:29:31.466Z,69.11
2023-02-08T07:32:04.871Z,68.82
2023-02-08T07:34:38.893Z,68.14
2023-02-08T07:37:15.991Z,68.14
2023-02-08T07:39:45.866Z,68.35
2023-02-08T07:42:15.505Z,68.09
2023-02-08T07:44:55.196Z,67.72
2023-02-08T07:47:25.145Z,67.44
2023-02-08T07:49:54.641Z,67.36
2023-02-08T07:52:25.233Z,67.21
2023-02-08T07:54:55.878Z,66.73
2023-02-08T07:57:25.837Z,66.76
2023-02-08T07:59:56.605Z,66.71
2023-02-08T08:02:25.780Z,66.41
2023-02-08T08:04:55.334Z,66.28
2023-02-08T08:07:24.815Z,65.83
2023-02-08T08:09:59.164Z,65.55
2023-02-08T08:12:28.919Z,65.96
2023-02-08T08:14:59.438Z,65.81
2023-02-08T08:17:32.451Z,65.48
2023-02-08T08:20:03.449Z,64.61
2023-02-08T08:22:39.407Z,64.58
2023-02-08T08:25:15.137Z,64.18
2023-02-08T08:27:55.701Z,63.66
2023-02-08T08:30:25.571Z,63.86
2023-02-08T08:32:55.555Z,63.31
2023-02-08T08:35:25.716Z,62.94
2023-02-08T08:37:56.040Z,62.83
2023-02-08T08:40:27.285Z,62.54
2023-02-08T08:42:59.733Z,61.83
2023-02-08T08:45:31.744Z,61.67
2023-02-08T08:48:06.426Z,60.93
2023-02-08T08:50:39.199Z,61.06
2023-02-08T08:53:10.148Z,60.63
2023-02-08T08:55:45.737Z,60.64
2023-02-08T08:58:19.078Z,60.11
2023-02-08T09:00:50.224Z,59.29
2023-02-08T09:03:20.052Z,58.99
2023-02-08T09:05:50.318Z,59.19
2023-02-08T09:08:23.253Z,58.72
2023-02-08T09:11:08.303Z,58.13
2023-02-08T09:13:38.422Z,57.75
2023-02-08T09:16:24.880Z,57.25
2023-02-08T09:18:57.512Z,56.80
2023-02-08T09:21:28.324Z,56.94
2023-02-08T09:23:59.617Z,56.11
2023-02-08T09:26:32.674Z,55.49
2023-02-08T09:29:08.798Z,55.44
2023-02-08T09:31:40.001Z,53.91
2023-02-08T09:34:10.922Z,53.09
2023-02-08T09:36:44.602Z,52.47
2023-02-08T09:39:25.989Z,52.39
2023-02-08T09:42:14.905Z,51.50
2023-02-08T09:45:15.234Z,51.30
2023-02-08T09:47:59.426Z,50.38
2023-02-08T09:50:45.393Z,49.67
2023-02-08T09:53:38.135Z,48.63
2023-02-08T09:56:16.560Z,48.52
2023-02-08T09:58:51.428Z,47.77
2023-02-08T10:01:31.155Z,46.76
2023-02-08T10:04:18.281Z,46.72
2023-02-08T10:06:50.053Z,45.97
2023-02-08T10:09:26.496Z,44.86
2023-02-08T10:11:58.396Z,45.07
2023-02-08T10:14:45.549Z,44.08
2023-02-08T10:17:43.554Z,43.14
2023-02-08T10:20:43.084Z,42.25
2023-02-08T10:23:31.664Z,41.93
2023-02-08T10:26:32.134Z,40.91
2023-02-08T10:29:37.882Z,39.62
2023-02-08T10:32:28.476Z,38.19
2023-02-08T10:35:04.727Z,37.42
2023-02-08T10:37:53.854Z,37.18
2023-02-08T10:40:41.766Z,36.55
2023-02-08T10:43:47.435Z,36.25
2023-02-08T10:47:08.788Z,34.90
2023-02-08T10:50:09.604Z,34.66
2023-02-08T10:52:49.702Z,34.27
2023-02-08T10:55:40.502Z,33.28
2023-02-08T10:58:27.641Z,33.06
2023-02-08T11:01:34.425Z,32.95
2023-02-08T11:04:23.027Z,32.69
2023-02-08T11:07:16.991Z,31.80
2023-02-08T11:09:53.000Z,30.92
2023-02-08T11:12:24.030Z,30.64
2023-02-08T11:14:54.525Z,31.37
2023-02-08T11:17:34.499Z,30.63
2023-02-08T11:20:06.421Z,30.15
2023-02-08T11:22:37.692Z,30.03
2023-02-08T11:25:08.503Z,28.71
2023-02-08T11:27:45.483Z,28.20
2023-02-08T11:30:21.464Z,28.83
2023-02-08T11:33:14.866Z,28.83
2023-02-08T11:35:57.835Z,29.53
2023-02-08T11:38:28.904Z,28.60
2023-02-08T11:41:07.175Z,28.56
2023-02-08T11:43:36.952Z,27.73
2023-02-08T11:46:07.333Z,28.05
2023-02-08T11:48:50.327Z,27.23
2023-02-08T11:51:36.435Z,27.04
2023-02-08T11:54:09.642Z,26.49
2023-02-08T11:56:39.296Z,26.08
2023-02-08T11:59:25.166Z,26.60
2023-02-08T12:01:55.844Z,27.00
2023-02-08T12:04:26.350Z,26.04
2023-02-08T12:07:20.307Z,25.50
2023-02-08T12:10:29.735Z,25.12
2023-02-08T12:13:27.730Z,25.25
2023-02-08T12:16:52.335Z,25.21
2023-02-08T12:19:37.325Z,24.82
2023-02-08T12:22:18.441Z,25.88
2023-02-08T12:25:34.725Z,25.57
2023-02-08T12:28:23.876Z,25.22
2023-02-08T12:31:33.145Z,25.06
2023-02-08T12:34:15.532Z,25.28
2023-02-08T12:37:40.487Z,25.04
2023-02-08T12:40:45.803Z,23.54
2023-02-08T12:43:53.170Z,24.25
2023-02-08T12:46:58.957Z,24.66
2023-02-08T12:49:49.472Z,25.06
2023-02-08T12:52:58.227Z,24.79
2023-02-08T12:55:41.854Z,24.64
2023-02-08T12:58:35.819Z,24.71
2023-02-08T13:01:20.819Z,24.22
2023-02-08T13:04:15.351Z,24.24
2023-02-08T13:07:03.312Z,23.78
2023-02-08T13:09:42.513Z,23.72
2023-02-08T13:12:20.810Z,23.33
2023-02-08T13:15:02.959Z,23.62
2023-02-08T13:17:58.478Z,24.02
2023-02-08T13:20:43.989Z,23.36
2023-02-08T13:23:51.578Z,24.02
2023-02-08T13:26:34.899Z,24.04
2023-02-08T13:29:05.503Z,24.06
2023-02-08T13:31:45.876Z,24.34
2023-02-08T13:34:25.681Z,23.96
2023-02-08T13:37:01.131Z,23.42
2023-02-08T13:39:47.025Z,23.89
2023-02-08T13:42:32.049Z,23.50
2023-02-08T13:45:05.779Z,24.18
2023-02-08T13:48:10.007Z,24.10
2023-02-08T13:50:59.175Z,24.12
2023-02-08T13:53:40.164Z,23.28
2023-02-08T13:56:13.694Z,23.40
2023-02-08T13:58:52.299Z,23.52
2023-02-08T14:01:28.972Z,23.74
2023-02-08T14:04:13.293Z,23.39
2023-02-08T14:06:58.281Z,23.20
2023-02-08T14:09:48.678Z,23.92
2023-02-08T14:13:09.563Z,23.83
2023-02-08T14:15:41.159Z,23.87
2023-02-08T14:18:27.397Z,23.85
2023-02-08T14:21:05.024Z,24.03
2023-02-08T14:23:40.583Z,23.18
2023-02-08T14:26:24.712Z,23.14
2023-02-08T14:29:07.447Z,24.38
2023-02-08T14:31:59.477Z,24.27
2023-02-08T14:34:38.934Z,24.68
2023-02-08T14:37:22.144Z,24.64
2023-02-08T14:40:24.420Z,25.08
2023-02-08T14:43:28.675Z,25.32
2023-02-08T14:46:39.614Z,25.39
2023-02-08T14:49:34.717Z,25.58
2023-02-08T14:52:25.322Z,25.84
2023-02-08T14:55:09.700Z,26.19
2023-02-08T14:58:08.772Z,26.66
2023-02-08T15:00:56.042Z,26.90
2023-02-08T15:03:35.702Z,27.10
2023-02-08T15:06:49.865Z,28.14
2023-02-08T15:09:25.925Z,29.12
2023-02-08T15:12:03.048Z,29.74
2023-02-08T15:14:36.703Z,30.24
2023-02-08T15:17:18.880Z,31.43
2023-02-08T15:19:51.574Z,32.12
2023-02-08T15:22:29.433Z,33.94
2023-02-08T15:25:20.475Z,33.60
2023-02-08T15:27:56.398Z,35.46
2023-02-08T15:30:32.756Z,35.17
2023-02-08T15:33:11.022Z,35.45
2023-02-08T15:35:43.484Z,37.04
2023-02-08T15:38:23.791Z,38.19
2023-02-08T15:41:14.424Z,39.58
2023-02-08T15:43:46.672Z,39.48
2023-02-08T15:46:24.758Z,39.63
2023-02-08T15:49:01.447Z,40.94
2023-02-08T15:51:30.990Z,41.05
2023-02-08T15:54:01.470Z,41.60
2023-02-08T15:56:39.486Z,41.87
2023-02-08T15:59:24.184Z,42.70
2023-02-08T16:01:58.662Z,42.36
2023-02-08T16:04:28.400Z,42.82
2023-02-08T16:07:00.125Z,43.49
2023-02-08T16:09:31.931Z,43.50
2023-02-08T16:12:01.939Z,43.98
2023-02-08T16:14:47.393Z,44.97
2023-02-08T16:17:49.292Z,44.59
2023-02-08T16:20:23.588Z,43.96
2023-02-08T16:23:01.784Z,45.79
2023-02-08T16:25:49.535Z,46.82
2023-02-08T16:28:30.421Z,46.02
2023-02-08T16:31:04.366Z,46.48
2023-02-08T16:33:37.622Z,46.80
2023-02-08T16:36:07.701Z,47.92
2023-02-08T16:38:40.086Z,47.49
2023-02-08T16:41:14.638Z,48.10
2023-02-08T16:43:46.917Z,47.91
2023-02-08T16:46:32.955Z,47.71
2023-02-08T16:49:06.336Z,48.28
2023-02-08T16:51:38.204Z,47.92
2023-02-08T16:54:09.015Z,48.24
2023-02-08T16:56:42.805Z,47.99
2023-02-08T16:59:14.060Z,49.55
2023-02-08T17:01:49.011Z,48.98
2023-02-08T17:04:35.523Z,51.35
2023-02-08T17:07:12.508Z,49.98
2023-02-08T17:09:42.769Z,49.22
2023-02-08T17:12:21.820Z,47.64
2023-02-08T17:14:53.481Z,48.70
2023-02-08T17:17:29.130Z,47.66
2023-02-08T17:20:00.299Z,48.63
2023-02-08T17:22:30.762Z,49.61
2023-02-08T17:25:00.413Z,48.44
2023-02-08T17:27:30.729Z,50.97
2023-02-08T17:30:00.310Z,48.98
2023-02-08T17:32:30.219Z,48.80
2023-02-08T17:35:02.531Z,49.80
2023-02-08T17:37:33.054Z,51.03
2023-02-08T17:40:02.506Z,51.04
2023-02-08T17:42:32.927Z,52.43
2023-02-08T17:45:04.332Z,53.24
2023-02-08T17:47:34.899Z,51.56
2023-02-08T17:50:09.402Z,54.02
2023-02-08T17:52:39.167Z,52.53
2023-02-08T17:55:11.379Z,50.87
2023-02-08T17:57:45.726Z,53.17
2023-02-08T18:00:19.777Z,53.63
2023-02-08T18:02:55.502Z,55.80
2023-02-08T18:05:28.307Z,56.55
2023-02-08T18:08:00.164Z,53.60
2023-02-08T18:10:30.319Z,52.33
2023-02-08T18:13:00.781Z,54.02
2023-02-08T18:15:31.054Z,53.58
2023-02-08T18:18:00.810Z,53.58
2023-02-08T18:20:30.639Z,55.56
2023-02-08T18:23:00.973Z,54.45
2023-02-08T18:25:31.858Z,53.28
2023-02-08T18:28:03.426Z,53.68
2023-02-08T18:30:34.628Z,53.55
2023-02-08T18:33:04.190Z,53.49
2023-02-08T18:35:33.477Z,54.56
2023-02-08T18:38:04.527Z,55.88
2023-02-08T18:40:36.550Z,56.02
2023-02-08T18:43:09.690Z,55.18
2023-02-08T18:45:39.812Z,54.68
2023-02-08T18:48:09.666Z,54.70
2023-02-08T18:50:40.116Z,55.81
2023-02-08T18:53:12.904Z,57.28
2023-02-08T18:55:55.118Z,57.74
2023-02-08T18:58:26.754Z,57.96
2023-02-08T19:01:13.682Z,57.58
2023-02-08T19:03:45.467Z,58.07
2023-02-08T19:06:18.662Z,57.82
2023-02-08T19:08:55.798Z,57.67
2023-02-08T19:11:34.499Z,58.88
2023-02-08T19:14:11.082Z,58.93
2023-02-08T19:16:44.842Z,59.33
2023-02-08T19:19:14.516Z,59.02
2023-02-08T19:21:44.038Z,58.35
2023-02-08T19:24:15.375Z,58.06
2023-02-08T19:26:45.849Z,57.98
2023-02-08T19:29:17.979Z,58.64
2023-02-08T19:31:50.052Z,59.33
2023-02-08T19:34:22.096Z,59.02
2023-02-08T19:36:57.620Z,59.22
2023-02-08T19:39:31.353Z,59.74
2023-02-08T19:42:01.185Z,60.02
2023-02-08T19:44:31.235Z,60.08
2023-02-08T19:47:01.064Z,59.94
2023-02-08T19:49:37.861Z,61.67
2023-02-08T19:52:07.803Z,60.34
2023-02-08T19:54:37.317Z,59.92
2023-02-08T19:57:13.196Z,60.05
2023-02-08T19:59:45.069Z,59.90
2023-02-08T20:02:18.805Z,59.67
2023-02-08T20:04:48.229Z,59.81
2023-02-08T20:07:18.638Z,60.74
2023-02-08T20:09:48.816Z,61.39
2023-02-08T20:12:20.584Z,60.23
2023-02-08T20:14:50.863Z,61.22
2023-02-08T20:17:20.774Z,60.52
2023-02-08T20:19:52.843Z,59.80
2023-02-08T20:22:23.555Z,59.81
2023-02-08T20:24:55.052Z,60.23
2023-02-08T20:27:24.984Z,60.80
2023-02-08T20:29:57.093Z,61.05
2023-02-08T20:32:28.163Z,61.54
2023-02-08T20:34:59.849Z,61.13
2023-02-08T20:37:30.860Z,61.34
2023-02-08T20:40:00.662Z,59.93
2023-02-08T20:42:31.841Z,61.10
2023-02-08T20:45:04.613Z,61.42
2023-02-08T20:47:46.055Z,61.64
2023-02-08T20:50:20.413Z,62.14
2023-02-08T20:52:50.224Z,61.52
2023-02-08T20:55:19.948Z,62.48
2023-02-08T20:57:50.252Z,62.04
2023-02-08T21:00:21.656Z,61.22
2023-02-08T21:02:53.436Z,61.99
2023-02-08T21:05:23.043Z,62.56
2023-02-08T21:07:54.497Z,61.92
2023-02-08T21:10:24.505Z,61.67
2023-02-08T21:12:54.248Z,61.82
2023-02-08T21:15:23.643Z,61.26
2023-02-08T21:17:53.050Z,62.38
2023-02-08T21:20:23.423Z,62.14
2023-02-08T21:22:53.158Z,63.91
2023-02-08T21:25:24.685Z,63.44
2023-02-08T21:27:54.751Z,63.69
2023-02-08T21:30:27.501Z,63.78
2023-02-08T21:32:56.721Z,65.09
2023-02-08T21:35:26.712Z,63.94
2023-02-08T21:37:58.762Z,63.65
2023-02-08T21:40:29.963Z,63.66
2023-02-08T21:43:00.667Z,63.85
2023-02-08T21:45:31.517Z,62.72
2023-02-08T21:48:00.621Z,62.20
2023-02-08T21:50:49.063Z,61.55
2023-02-08T21:53:55.459Z,63.17
2023-02-08T21:56:24.663Z,62.17
2023-02-08T21:58:54.653Z,62.25
2023-02-08T22:01:25.248Z,63.62
2023-02-08T22:03:59.019Z,62.76
2023-02-08T22:06:33.749Z,63.24
2023-02-08T22:09:04.806Z,63.79
2023-02-08T22:11:41.519Z,63.68
2023-02-08T22:14:14.248Z,64.12
2023-02-08T22:16:44.382Z,64.11
2023-02-08T22:19:14.470Z,64.70
2023-02-08T22:21:45.518Z,64.74
2023-02-08T22:24:15.070Z,65.02
2023-02-08T22:26:44.439Z,64.48
2023-02-08T22:29:14.617Z,64.48
2023-02-08T22:31:47.847Z,64.66
2023-02-08T22:34:20.643Z,64.69
2023-02-08T22:36:53.489Z,64.35
2023-02-08T22:39:24.165Z,65.92
2023-02-08T22:41:53.665Z,65.37
2023-02-08T22:44:23.224Z,64.50
2023-02-08T22:47:13.745Z,65.04
2023-02-08T22:49:43.190Z,63.60
2023-02-08T22:52:15.159Z,63.99
2023-02-08T22:54:45.139Z,63.68
2023-02-08T22:58:25.985Z,63.61
2023-02-08T23:01:12.873Z,63.37
2023-02-08T23:03:43.514Z,64.21
2023-02-08T23:06:16.487Z,64.03
2023-02-08T23:08:46.055Z,64.05
2023-02-08T23:11:16.628Z,63.49
2023-02-08T23:13:46.275Z,64.09
2023-02-08T23:16:18.280Z,64.31
2023-02-08T23:18:50.532Z,64.62
2023-02-08T23:21:23.333Z,64.45
2023-02-08T23:23:52.720Z,64.60
2023-02-08T23:26:24.088Z,65.22
2023-02-08T23:28:54.500Z,64.24
2023-02-08T23:31:32.218Z,64.18
2023-02-08T23:34:02.317Z,64.93
2023-02-08T23:36:32.212Z,64.34
2023-02-08T23:39:03.739Z,64.31
2023-02-08T23:41:33.372Z,64.87
2023-02-08T23:44:03.764Z,66.42
2023-02-08T23:46:34.309Z,66.47
2023-02-08T23:49:04.527Z,67.13
2023-02-08T23:51:33.672Z,67.81
2023-02-08T23:54:07.131Z,67.18
2023-02-08T23:56:36.870Z,65.82
2023-02-08T23:59:08.853Z,65.97
